sensor_id;sensor_type;location;lat;lon;timestamp;temperature;humidity
58102;HTU21D;52034;51.926;6.320;2024-03-06T00:00:23;7.60;88.22
58102;HTU21D;52034;51.926;6.320;2024-03-06T00:01:25;7.60;88.28
58102;HTU21D;52034;51.926;6.320;2024-03-06T00:02:26;7.60;88.25
58102;HTU21D;52034;51.926;6.320;2024-03-06T00:03:28;7.62;88.27
58102;HTU21D;52034;51.926;6.320;2024-03-06T00:04:30;7.63;88.11
58102;HTU21D;52034;51.926;6.320;2024-03-06T00:05:31;7.65;88.09
58102;HTU21D;52034;51.926;6.320;2024-03-06T00:06:33;7.65;88.12
58102;HTU21D;52034;51.926;6.320;2024-03-06T00:07:35;7.68;88.10
58102;HTU21D;52034;51.926;6.320;2024-03-06T00:08:37;7.69;88.02
58102;HTU21D;52034;51.926;6.320;2024-03-06T00:09:38;7.67;88.08
58102;HTU21D;52034;51.926;6.320;2024-03-06T00:10:41;7.68;88.25
58102;HTU21D;52034;51.926;6.320;2024-03-06T00:11:43;7.65;88.15
58102;HTU21D;52034;51.926;6.320;2024-03-06T00:12:44;7.67;88.14
58102;HTU21D;52034;51.926;6.320;2024-03-06T00:13:46;7.63;88.18
58102;HTU21D;52034;51.926;6.320;2024-03-06T00:14:49;7.62;88.18
58102;HTU21D;52034;51.926;6.320;2024-03-06T00:15:51;7.58;88.37
58102;HTU21D;52034;51.926;6.320;2024-03-06T00:16:52;7.61;88.28
58102;HTU21D;52034;51.926;6.320;2024-03-06T00:17:57;7.65;87.97
58102;HTU21D;52034;51.926;6.320;2024-03-06T00:19:00;7.63;87.96
58102;HTU21D;52034;51.926;6.320;2024-03-06T00:20:02;7.64;87.91
58102;HTU21D;52034;51.926;6.320;2024-03-06T00:21:06;7.70;87.77
58102;HTU21D;52034;51.926;6.320;2024-03-06T00:22:09;7.69;87.70
58102;HTU21D;52034;51.926;6.320;2024-03-06T00:23:11;7.69;87.81
58102;HTU21D;52034;51.926;6.320;2024-03-06T00:24:13;7.73;87.62
58102;HTU21D;52034;51.926;6.320;2024-03-06T00:25:15;7.68;87.76
58102;HTU21D;52034;51.926;6.320;2024-03-06T00:26:17;7.65;87.85
58102;HTU21D;52034;51.926;6.320;2024-03-06T00:27:19;7.65;87.99
58102;HTU21D;52034;51.926;6.320;2024-03-06T00:28:21;7.64;87.92
58102;HTU21D;52034;51.926;6.320;2024-03-06T00:29:22;7.67;87.86
58102;HTU21D;52034;51.926;6.320;2024-03-06T00:30:24;7.69;87.75
58102;HTU21D;52034;51.926;6.320;2024-03-06T00:31:25;7.69;87.73
58102;HTU21D;52034;51.926;6.320;2024-03-06T00:32:27;7.70;87.68
58102;HTU21D;52034;51.926;6.320;2024-03-06T00:33:30;7.71;87.73
58102;HTU21D;52034;51.926;6.320;2024-03-06T00:34:31;7.68;87.81
58102;HTU21D;52034;51.926;6.320;2024-03-06T00:35:33;7.69;87.93
58102;HTU21D;52034;51.926;6.320;2024-03-06T00:36:35;7.67;87.95
58102;HTU21D;52034;51.926;6.320;2024-03-06T00:37:36;7.64;88.25
58102;HTU21D;52034;51.926;6.320;2024-03-06T00:38:38;7.61;88.42
58102;HTU21D;52034;51.926;6.320;2024-03-06T00:39:40;7.60;88.29
58102;HTU21D;52034;51.926;6.320;2024-03-06T00:40:41;7.61;88.25
58102;HTU21D;52034;51.926;6.320;2024-03-06T00:41:43;7.62;88.16
58102;HTU21D;52034;51.926;6.320;2024-03-06T00:42:45;7.67;87.89
58102;HTU21D;52034;51.926;6.320;2024-03-06T00:43:46;7.69;87.84
58102;HTU21D;52034;51.926;6.320;2024-03-06T00:44:48;7.69;87.93
58102;HTU21D;52034;51.926;6.320;2024-03-06T00:45:50;7.65;88.09
58102;HTU21D;52034;51.926;6.320;2024-03-06T00:46:51;7.64;88.15
58102;HTU21D;52034;51.926;6.320;2024-03-06T00:47:53;7.63;88.15
58102;HTU21D;52034;51.926;6.320;2024-03-06T00:48:55;7.64;88.05
58102;HTU21D;52034;51.926;6.320;2024-03-06T00:49:56;7.64;88.02
58102;HTU21D;52034;51.926;6.320;2024-03-06T00:50:59;7.65;87.93
58102;HTU21D;52034;51.926;6.320;2024-03-06T00:52:00;7.62;88.05
58102;HTU21D;52034;51.926;6.320;2024-03-06T00:53:02;7.62;88.01
58102;HTU21D;52034;51.926;6.320;2024-03-06T00:54:06;7.65;87.84
58102;HTU21D;52034;51.926;6.320;2024-03-06T00:55:08;7.69;87.75
58102;HTU21D;52034;51.926;6.320;2024-03-06T00:56:10;7.70;87.62
58102;HTU21D;52034;51.926;6.320;2024-03-06T00:57:11;7.68;87.86
58102;HTU21D;52034;51.926;6.320;2024-03-06T00:58:13;7.65;87.85
58102;HTU21D;52034;51.926;6.320;2024-03-06T00:59:15;7.65;87.80
58102;HTU21D;52034;51.926;6.320;2024-03-06T01:00:17;7.72;87.67
58102;HTU21D;52034;51.926;6.320;2024-03-06T01:01:19;7.68;87.72
58102;HTU21D;52034;51.926;6.320;2024-03-06T01:02:21;7.69;87.77
58102;HTU21D;52034;51.926;6.320;2024-03-06T01:03:22;7.68;87.76
58102;HTU21D;52034;51.926;6.320;2024-03-06T01:04:24;7.62;87.80
58102;HTU21D;52034;51.926;6.320;2024-03-06T01:05:26;7.61;87.98
58102;HTU21D;52034;51.926;6.320;2024-03-06T01:06:29;7.60;87.99
58102;HTU21D;52034;51.926;6.320;2024-03-06T01:07:30;7.59;87.93
58102;HTU21D;52034;51.926;6.320;2024-03-06T01:08:32;7.56;88.15
58102;HTU21D;52034;51.926;6.320;2024-03-06T01:09:34;7.58;88.12
58102;HTU21D;52034;51.926;6.320;2024-03-06T01:10:36;7.58;88.14
58102;HTU21D;52034;51.926;6.320;2024-03-06T01:11:37;7.61;87.95
58102;HTU21D;52034;51.926;6.320;2024-03-06T01:12:40;7.58;88.10
58102;HTU21D;52034;51.926;6.320;2024-03-06T01:13:41;7.63;87.73
58102;HTU21D;52034;51.926;6.320;2024-03-06T01:14:43;7.58;87.93
58102;HTU21D;52034;51.926;6.320;2024-03-06T01:15:45;7.59;87.93
58102;HTU21D;52034;51.926;6.320;2024-03-06T01:16:47;7.58;87.98
58102;HTU21D;52034;51.926;6.320;2024-03-06T01:17:48;7.56;88.06
58102;HTU21D;52034;51.926;6.320;2024-03-06T01:18:51;7.57;88.12
58102;HTU21D;52034;51.926;6.320;2024-03-06T01:19:52;7.57;88.26
58102;HTU21D;52034;51.926;6.320;2024-03-06T01:20:54;7.59;88.09
58102;HTU21D;52034;51.926;6.320;2024-03-06T01:21:56;7.61;88.15
58102;HTU21D;52034;51.926;6.320;2024-03-06T01:22:57;7.61;88.07
58102;HTU21D;52034;51.926;6.320;2024-03-06T01:24:01;7.60;88.17
58102;HTU21D;52034;51.926;6.320;2024-03-06T01:25:03;7.57;88.25
58102;HTU21D;52034;51.926;6.320;2024-03-06T01:26:06;7.62;87.83
58102;HTU21D;52034;51.926;6.320;2024-03-06T01:27:08;7.64;87.80
58102;HTU21D;52034;51.926;6.320;2024-03-06T01:28:09;7.61;88.13
58102;HTU21D;52034;51.926;6.320;2024-03-06T01:29:11;7.57;88.34
58102;HTU21D;52034;51.926;6.320;2024-03-06T01:30:13;7.59;88.09
58102;HTU21D;52034;51.926;6.320;2024-03-06T01:31:15;7.55;88.62
58102;HTU21D;52034;51.926;6.320;2024-03-06T01:32:16;7.54;88.22
58102;HTU21D;52034;51.926;6.320;2024-03-06T01:33:18;7.54;88.50
58102;HTU21D;52034;51.926;6.320;2024-03-06T01:34:20;7.55;88.45
58102;HTU21D;52034;51.926;6.320;2024-03-06T01:35:22;7.50;88.54
58102;HTU21D;52034;51.926;6.320;2024-03-06T01:36:24;7.57;88.29
58102;HTU21D;52034;51.926;6.320;2024-03-06T01:37:26;7.52;88.25
58102;HTU21D;52034;51.926;6.320;2024-03-06T01:38:28;7.54;88.38
58102;HTU21D;52034;51.926;6.320;2024-03-06T01:39:29;7.52;88.39
58102;HTU21D;52034;51.926;6.320;2024-03-06T01:40:31;7.52;88.18
58102;HTU21D;52034;51.926;6.320;2024-03-06T01:41:33;7.47;88.27
58102;HTU21D;52034;51.926;6.320;2024-03-06T01:42:34;7.47;88.16
58102;HTU21D;52034;51.926;6.320;2024-03-06T01:43:37;7.52;87.97
58102;HTU21D;52034;51.926;6.320;2024-03-06T01:44:40;7.55;87.77
58102;HTU21D;52034;51.926;6.320;2024-03-06T01:45:41;7.55;87.64
58102;HTU21D;52034;51.926;6.320;2024-03-06T01:46:43;7.54;87.61
58102;HTU21D;52034;51.926;6.320;2024-03-06T01:47:46;7.54;87.55
58102;HTU21D;52034;51.926;6.320;2024-03-06T01:48:47;7.54;87.47
58102;HTU21D;52034;51.926;6.320;2024-03-06T01:49:49;7.53;87.61
58102;HTU21D;52034;51.926;6.320;2024-03-06T01:50:53;7.52;87.65
58102;HTU21D;52034;51.926;6.320;2024-03-06T01:51:58;7.45;87.94
58102;HTU21D;52034;51.926;6.320;2024-03-06T01:53:01;7.44;87.97
58102;HTU21D;52034;51.926;6.320;2024-03-06T01:54:04;7.41;87.89
58102;HTU21D;52034;51.926;6.320;2024-03-06T01:55:07;7.35;88.02
58102;HTU21D;52034;51.926;6.320;2024-03-06T01:56:09;7.31;87.87
58102;HTU21D;52034;51.926;6.320;2024-03-06T01:57:15;7.29;88.25
58102;HTU21D;52034;51.926;6.320;2024-03-06T01:58:18;7.24;88.08
58102;HTU21D;52034;51.926;6.320;2024-03-06T01:59:24;7.23;87.95
58102;HTU21D;52034;51.926;6.320;2024-03-06T02:00:37;7.18;88.02
58102;HTU21D;52034;51.926;6.320;2024-03-06T02:01:39;7.16;87.48
58102;HTU21D;52034;51.926;6.320;2024-03-06T02:02:42;7.10;87.16
58102;HTU21D;52034;51.926;6.320;2024-03-06T02:03:45;7.11;87.29
58102;HTU21D;52034;51.926;6.320;2024-03-06T02:04:47;7.12;87.61
58102;HTU21D;52034;51.926;6.320;2024-03-06T02:05:49;7.14;87.98
58102;HTU21D;52034;51.926;6.320;2024-03-06T02:06:52;7.12;87.93
58102;HTU21D;52034;51.926;6.320;2024-03-06T02:07:53;7.05;87.80
58102;HTU21D;52034;51.926;6.320;2024-03-06T02:08:55;7.03;87.67
58102;HTU21D;52034;51.926;6.320;2024-03-06T02:09:58;7.00;87.39
58102;HTU21D;52034;51.926;6.320;2024-03-06T02:10:59;6.86;87.28
58102;HTU21D;52034;51.926;6.320;2024-03-06T02:12:05;6.86;88.99
58102;HTU21D;52034;51.926;6.320;2024-03-06T02:13:07;6.85;88.67
58102;HTU21D;52034;51.926;6.320;2024-03-06T02:14:11;6.74;87.63
58102;HTU21D;52034;51.926;6.320;2024-03-06T02:15:13;6.68;87.83
58102;HTU21D;52034;51.926;6.320;2024-03-06T02:16:14;6.51;88.96
58102;HTU21D;52034;51.926;6.320;2024-03-06T02:17:16;6.43;89.13
58102;HTU21D;52034;51.926;6.320;2024-03-06T02:18:18;6.49;88.85
58102;HTU21D;52034;51.926;6.320;2024-03-06T02:19:20;6.49;88.31
58102;HTU21D;52034;51.926;6.320;2024-03-06T02:20:25;6.53;88.28
58102;HTU21D;52034;51.926;6.320;2024-03-06T02:21:27;6.48;87.72
58102;HTU21D;52034;51.926;6.320;2024-03-06T02:22:28;6.43;87.46
58102;HTU21D;52034;51.926;6.320;2024-03-06T02:23:30;6.42;88.41
58102;HTU21D;52034;51.926;6.320;2024-03-06T02:24:32;6.28;88.73
58102;HTU21D;52034;51.926;6.320;2024-03-06T02:25:33;6.28;89.65
58102;HTU21D;52034;51.926;6.320;2024-03-06T02:26:35;6.19;89.72
58102;HTU21D;52034;51.926;6.320;2024-03-06T02:27:37;6.30;88.64
58102;HTU21D;52034;51.926;6.320;2024-03-06T02:28:39;6.29;88.64
58102;HTU21D;52034;51.926;6.320;2024-03-06T02:29:40;6.29;88.06
58102;HTU21D;52034;51.926;6.320;2024-03-06T02:30:43;6.29;88.14
58102;HTU21D;52034;51.926;6.320;2024-03-06T02:31:45;6.34;88.55
58102;HTU21D;52034;51.926;6.320;2024-03-06T02:32:46;6.33;89.20
58102;HTU21D;52034;51.926;6.320;2024-03-06T02:33:49;6.35;89.25
58102;HTU21D;52034;51.926;6.320;2024-03-06T02:34:51;6.37;88.93
58102;HTU21D;52034;51.926;6.320;2024-03-06T02:35:53;6.37;89.20
58102;HTU21D;52034;51.926;6.320;2024-03-06T02:36:54;6.34;88.80
58102;HTU21D;52034;51.926;6.320;2024-03-06T02:37:59;6.35;88.42
58102;HTU21D;52034;51.926;6.320;2024-03-06T02:39:00;6.33;88.81
58102;HTU21D;52034;51.926;6.320;2024-03-06T02:40:10;6.34;88.34
58102;HTU21D;52034;51.926;6.320;2024-03-06T02:41:13;6.30;88.54
58102;HTU21D;52034;51.926;6.320;2024-03-06T02:42:17;6.25;88.60
58102;HTU21D;52034;51.926;6.320;2024-03-06T02:43:19;6.21;88.64
58102;HTU21D;52034;51.926;6.320;2024-03-06T02:44:20;6.13;87.76
58102;HTU21D;52034;51.926;6.320;2024-03-06T02:45:22;6.11;88.62
58102;HTU21D;52034;51.926;6.320;2024-03-06T02:46:24;6.12;88.74
58102;HTU21D;52034;51.926;6.320;2024-03-06T02:47:25;6.12;89.02
58102;HTU21D;52034;51.926;6.320;2024-03-06T02:48:27;6.11;88.73
58102;HTU21D;52034;51.926;6.320;2024-03-06T02:49:28;6.10;89.41
58102;HTU21D;52034;51.926;6.320;2024-03-06T02:50:31;5.99;88.93
58102;HTU21D;52034;51.926;6.320;2024-03-06T02:51:32;6.04;88.91
58102;HTU21D;52034;51.926;6.320;2024-03-06T02:52:34;5.94;88.82
58102;HTU21D;52034;51.926;6.320;2024-03-06T02:53:36;5.87;88.65
58102;HTU21D;52034;51.926;6.320;2024-03-06T02:54:37;5.85;88.81
58102;HTU21D;52034;51.926;6.320;2024-03-06T02:55:42;5.68;89.47
58102;HTU21D;52034;51.926;6.320;2024-03-06T02:56:44;5.56;88.62
58102;HTU21D;52034;51.926;6.320;2024-03-06T02:57:45;5.60;88.67
58102;HTU21D;52034;51.926;6.320;2024-03-06T02:58:47;5.51;88.60
58102;HTU21D;52034;51.926;6.320;2024-03-06T02:59:49;5.51;91.24
58102;HTU21D;52034;51.926;6.320;2024-03-06T03:00:51;5.53;89.08
58102;HTU21D;52034;51.926;6.320;2024-03-06T03:01:52;5.30;89.79
58102;HTU21D;52034;51.926;6.320;2024-03-06T03:02:54;5.30;89.51
58102;HTU21D;52034;51.926;6.320;2024-03-06T03:03:56;5.39;90.83
58102;HTU21D;52034;51.926;6.320;2024-03-06T03:04:58;5.30;89.91
58102;HTU21D;52034;51.926;6.320;2024-03-06T03:06:00;5.24;89.05
58102;HTU21D;52034;51.926;6.320;2024-03-06T03:07:02;5.28;89.79
58102;HTU21D;52034;51.926;6.320;2024-03-06T03:08:04;5.31;90.05
58102;HTU21D;52034;51.926;6.320;2024-03-06T03:09:06;5.32;89.74
58102;HTU21D;52034;51.926;6.320;2024-03-06T03:10:08;5.30;90.24
58102;HTU21D;52034;51.926;6.320;2024-03-06T03:11:12;5.23;90.10
58102;HTU21D;52034;51.926;6.320;2024-03-06T03:12:13;5.23;90.25
58102;HTU21D;52034;51.926;6.320;2024-03-06T03:13:15;5.25;90.02
58102;HTU21D;52034;51.926;6.320;2024-03-06T03:14:17;5.33;90.85
58102;HTU21D;52034;51.926;6.320;2024-03-06T03:15:18;5.30;90.24
58102;HTU21D;52034;51.926;6.320;2024-03-06T03:16:20;5.34;89.78
58102;HTU21D;52034;51.926;6.320;2024-03-06T03:17:22;5.32;89.21
58102;HTU21D;52034;51.926;6.320;2024-03-06T03:18:24;5.20;89.40
58102;HTU21D;52034;51.926;6.320;2024-03-06T03:19:25;5.11;88.98
58102;HTU21D;52034;51.926;6.320;2024-03-06T03:20:27;4.95;89.74
58102;HTU21D;52034;51.926;6.320;2024-03-06T03:21:29;4.94;90.93
58102;HTU21D;52034;51.926;6.320;2024-03-06T03:22:30;4.83;90.67
58102;HTU21D;52034;51.926;6.320;2024-03-06T03:23:32;4.87;90.22
58102;HTU21D;52034;51.926;6.320;2024-03-06T03:24:34;4.83;89.97
58102;HTU21D;52034;51.926;6.320;2024-03-06T03:25:36;4.84;90.76
58102;HTU21D;52034;51.926;6.320;2024-03-06T03:26:38;4.81;89.95
58102;HTU21D;52034;51.926;6.320;2024-03-06T03:27:40;4.88;90.22
58102;HTU21D;52034;51.926;6.320;2024-03-06T03:28:42;4.88;89.37
58102;HTU21D;52034;51.926;6.320;2024-03-06T03:29:44;4.90;89.17
58102;HTU21D;52034;51.926;6.320;2024-03-06T03:30:45;4.91;89.08
58102;HTU21D;52034;51.926;6.320;2024-03-06T03:31:47;4.90;89.21
58102;HTU21D;52034;51.926;6.320;2024-03-06T03:32:49;4.90;89.33
58102;HTU21D;52034;51.926;6.320;2024-03-06T03:33:51;4.92;89.44
58102;HTU21D;52034;51.926;6.320;2024-03-06T03:34:53;4.96;89.10
58102;HTU21D;52034;51.926;6.320;2024-03-06T03:35:54;4.93;89.38
58102;HTU21D;52034;51.926;6.320;2024-03-06T03:36:56;4.88;88.67
58102;HTU21D;52034;51.926;6.320;2024-03-06T03:37:58;4.90;88.86
58102;HTU21D;52034;51.926;6.320;2024-03-06T03:39:00;4.91;89.03
58102;HTU21D;52034;51.926;6.320;2024-03-06T03:40:01;4.90;88.92
58102;HTU21D;52034;51.926;6.320;2024-03-06T03:41:08;4.88;89.12
58102;HTU21D;52034;51.926;6.320;2024-03-06T03:42:10;4.84;88.83
58102;HTU21D;52034;51.926;6.320;2024-03-06T03:43:12;4.77;88.70
58102;HTU21D;52034;51.926;6.320;2024-03-06T03:44:14;4.75;89.28
58102;HTU21D;52034;51.926;6.320;2024-03-06T03:45:16;4.75;88.86
58102;HTU21D;52034;51.926;6.320;2024-03-06T03:46:18;4.75;88.31
58102;HTU21D;52034;51.926;6.320;2024-03-06T03:47:20;4.76;88.26
58102;HTU21D;52034;51.926;6.320;2024-03-06T03:48:21;4.67;87.58
58102;HTU21D;52034;51.926;6.320;2024-03-06T03:49:23;4.56;88.19
58102;HTU21D;52034;51.926;6.320;2024-03-06T03:50:24;4.62;89.11
58102;HTU21D;52034;51.926;6.320;2024-03-06T03:51:26;4.63;89.12
58102;HTU21D;52034;51.926;6.320;2024-03-06T03:52:29;4.65;88.82
58102;HTU21D;52034;51.926;6.320;2024-03-06T03:53:30;4.73;88.83
58102;HTU21D;52034;51.926;6.320;2024-03-06T03:54:32;4.73;88.50
58102;HTU21D;52034;51.926;6.320;2024-03-06T03:55:34;4.67;88.83
58102;HTU21D;52034;51.926;6.320;2024-03-06T03:56:36;4.61;88.29
58102;HTU21D;52034;51.926;6.320;2024-03-06T03:57:37;4.68;88.21
58102;HTU21D;52034;51.926;6.320;2024-03-06T03:58:39;4.66;88.02
58102;HTU21D;52034;51.926;6.320;2024-03-06T03:59:41;4.65;88.56
58102;HTU21D;52034;51.926;6.320;2024-03-06T04:00:42;4.61;88.15
58102;HTU21D;52034;51.926;6.320;2024-03-06T04:01:47;4.56;88.24
58102;HTU21D;52034;51.926;6.320;2024-03-06T04:02:49;4.63;88.41
58102;HTU21D;52034;51.926;6.320;2024-03-06T04:03:50;4.52;88.29
58102;HTU21D;52034;51.926;6.320;2024-03-06T04:04:52;4.57;88.51
58102;HTU21D;52034;51.926;6.320;2024-03-06T04:05:54;4.48;88.38
58102;HTU21D;52034;51.926;6.320;2024-03-06T04:06:56;4.51;88.52
58102;HTU21D;52034;51.926;6.320;2024-03-06T04:08:01;4.51;88.21
58102;HTU21D;52034;51.926;6.320;2024-03-06T04:09:02;4.47;88.48
58102;HTU21D;52034;51.926;6.320;2024-03-06T04:10:06;4.45;87.85
58102;HTU21D;52034;51.926;6.320;2024-03-06T04:11:08;4.50;88.65
58102;HTU21D;52034;51.926;6.320;2024-03-06T04:12:10;4.46;88.84
58102;HTU21D;52034;51.926;6.320;2024-03-06T04:13:12;4.51;88.19
58102;HTU21D;52034;51.926;6.320;2024-03-06T04:14:14;4.52;87.96
58102;HTU21D;52034;51.926;6.320;2024-03-06T04:15:16;4.51;87.71
58102;HTU21D;52034;51.926;6.320;2024-03-06T04:16:17;4.47;87.12
58102;HTU21D;52034;51.926;6.320;2024-03-06T04:17:20;4.39;87.12
58102;HTU21D;52034;51.926;6.320;2024-03-06T04:18:21;4.38;87.06
58102;HTU21D;52034;51.926;6.320;2024-03-06T04:19:23;4.30;87.25
58102;HTU21D;52034;51.926;6.320;2024-03-06T04:20:25;4.35;88.06
58102;HTU21D;52034;51.926;6.320;2024-03-06T04:21:27;4.52;87.66
58102;HTU21D;52034;51.926;6.320;2024-03-06T04:22:28;4.59;87.34
58102;HTU21D;52034;51.926;6.320;2024-03-06T04:23:31;4.51;86.81
58102;HTU21D;52034;51.926;6.320;2024-03-06T04:24:32;4.47;87.03
58102;HTU21D;52034;51.926;6.320;2024-03-06T04:25:34;4.46;86.95
58102;HTU21D;52034;51.926;6.320;2024-03-06T04:26:36;4.33;87.19
58102;HTU21D;52034;51.926;6.320;2024-03-06T04:27:37;4.31;87.55
58102;HTU21D;52034;51.926;6.320;2024-03-06T04:28:39;4.28;87.80
58102;HTU21D;52034;51.926;6.320;2024-03-06T04:29:41;4.28;88.05
58102;HTU21D;52034;51.926;6.320;2024-03-06T04:30:43;4.34;88.38
58102;HTU21D;52034;51.926;6.320;2024-03-06T04:31:44;4.32;87.86
58102;HTU21D;52034;51.926;6.320;2024-03-06T04:32:46;4.22;86.47
58102;HTU21D;52034;51.926;6.320;2024-03-06T04:33:48;4.17;87.67
58102;HTU21D;52034;51.926;6.320;2024-03-06T04:34:50;4.13;87.93
58102;HTU21D;52034;51.926;6.320;2024-03-06T04:35:51;4.15;88.93
58102;HTU21D;52034;51.926;6.320;2024-03-06T04:36:53;4.13;89.09
58102;HTU21D;52034;51.926;6.320;2024-03-06T04:37:55;4.08;88.30
58102;HTU21D;52034;51.926;6.320;2024-03-06T04:38:57;4.03;88.72
58102;HTU21D;52034;51.926;6.320;2024-03-06T04:39:59;4.01;88.83
58102;HTU21D;52034;51.926;6.320;2024-03-06T04:41:00;3.99;88.76
58102;HTU21D;52034;51.926;6.320;2024-03-06T04:42:02;3.86;88.43
58102;HTU21D;52034;51.926;6.320;2024-03-06T04:43:04;3.88;89.44
58102;HTU21D;52034;51.926;6.320;2024-03-06T04:44:06;3.98;89.15
58102;HTU21D;52034;51.926;6.320;2024-03-06T04:45:11;3.98;89.02
58102;HTU21D;52034;51.926;6.320;2024-03-06T04:46:13;4.00;88.65
58102;HTU21D;52034;51.926;6.320;2024-03-06T04:47:16;4.04;88.38
58102;HTU21D;52034;51.926;6.320;2024-03-06T04:48:18;4.01;88.17
58102;HTU21D;52034;51.926;6.320;2024-03-06T04:49:19;3.97;87.59
58102;HTU21D;52034;51.926;6.320;2024-03-06T04:50:21;3.97;88.09
58102;HTU21D;52034;51.926;6.320;2024-03-06T04:51:23;3.99;88.34
58102;HTU21D;52034;51.926;6.320;2024-03-06T04:52:24;4.05;88.20
58102;HTU21D;52034;51.926;6.320;2024-03-06T04:53:26;4.05;87.65
58102;HTU21D;52034;51.926;6.320;2024-03-06T04:54:28;4.04;88.11
58102;HTU21D;52034;51.926;6.320;2024-03-06T04:55:30;4.07;88.12
58102;HTU21D;52034;51.926;6.320;2024-03-06T04:56:32;4.07;87.73
58102;HTU21D;52034;51.926;6.320;2024-03-06T04:57:34;4.08;86.74
58102;HTU21D;52034;51.926;6.320;2024-03-06T04:58:36;4.13;87.03
58102;HTU21D;52034;51.926;6.320;2024-03-06T04:59:37;4.10;86.76
58102;HTU21D;52034;51.926;6.320;2024-03-06T05:00:39;4.18;86.83
58102;HTU21D;52034;51.926;6.320;2024-03-06T05:01:41;4.14;86.99
58102;HTU21D;52034;51.926;6.320;2024-03-06T05:02:42;4.16;86.65
58102;HTU21D;52034;51.926;6.320;2024-03-06T05:04:02;4.06;86.60
58102;HTU21D;52034;51.926;6.320;2024-03-06T05:05:22;4.07;86.51
58102;HTU21D;52034;51.926;6.320;2024-03-06T05:06:42;4.01;86.37
58102;HTU21D;52034;51.926;6.320;2024-03-06T05:08:01;4.02;87.15
58102;HTU21D;52034;51.926;6.320;2024-03-06T05:09:20;3.93;87.13
58102;HTU21D;52034;51.926;6.320;2024-03-06T05:10:39;3.95;87.39
58102;HTU21D;52034;51.926;6.320;2024-03-06T05:11:59;3.93;87.41
58102;HTU21D;52034;51.926;6.320;2024-03-06T05:13:18;4.04;88.04
58102;HTU21D;52034;51.926;6.320;2024-03-06T05:14:37;4.07;88.25
58102;HTU21D;52034;51.926;6.320;2024-03-06T05:15:56;4.01;87.09
58102;HTU21D;52034;51.926;6.320;2024-03-06T05:17:15;4.05;87.44
58102;HTU21D;52034;51.926;6.320;2024-03-06T05:18:34;4.05;87.28
58102;HTU21D;52034;51.926;6.320;2024-03-06T05:19:54;3.92;87.61
58102;HTU21D;52034;51.926;6.320;2024-03-06T05:21:13;4.02;87.12
58102;HTU21D;52034;51.926;6.320;2024-03-06T05:22:33;4.04;86.86
58102;HTU21D;52034;51.926;6.320;2024-03-06T05:23:52;3.98;87.22
58102;HTU21D;52034;51.926;6.320;2024-03-06T05:25:12;4.01;87.47
58102;HTU21D;52034;51.926;6.320;2024-03-06T05:26:31;4.05;88.06
58102;HTU21D;52034;51.926;6.320;2024-03-06T05:27:50;4.02;88.03
58102;HTU21D;52034;51.926;6.320;2024-03-06T05:29:09;4.00;87.70
58102;HTU21D;52034;51.926;6.320;2024-03-06T05:30:29;3.90;87.65
58102;HTU21D;52034;51.926;6.320;2024-03-06T05:31:48;3.89;87.63
58102;HTU21D;52034;51.926;6.320;2024-03-06T05:33:07;3.88;87.22
58102;HTU21D;52034;51.926;6.320;2024-03-06T05:34:26;3.90;87.60
58102;HTU21D;52034;51.926;6.320;2024-03-06T05:35:45;4.01;87.93
58102;HTU21D;52034;51.926;6.320;2024-03-06T05:37:05;4.06;88.02
58102;HTU21D;52034;51.926;6.320;2024-03-06T05:38:24;4.04;88.12
58102;HTU21D;52034;51.926;6.320;2024-03-06T05:39:43;4.08;87.81
58102;HTU21D;52034;51.926;6.320;2024-03-06T05:41:03;4.08;87.66
58102;HTU21D;52034;51.926;6.320;2024-03-06T05:42:22;4.14;87.47
58102;HTU21D;52034;51.926;6.320;2024-03-06T05:43:41;4.14;87.59
58102;HTU21D;52034;51.926;6.320;2024-03-06T05:45:00;4.15;87.30
58102;HTU21D;52034;51.926;6.320;2024-03-06T05:46:23;4.18;87.21
58102;HTU21D;52034;51.926;6.320;2024-03-06T05:47:42;4.13;87.19
58102;HTU21D;52034;51.926;6.320;2024-03-06T05:49:02;4.12;87.57
58102;HTU21D;52034;51.926;6.320;2024-03-06T05:50:21;4.13;87.78
58102;HTU21D;52034;51.926;6.320;2024-03-06T05:51:40;4.10;87.42
58102;HTU21D;52034;51.926;6.320;2024-03-06T05:52:59;4.14;87.36
58102;HTU21D;52034;51.926;6.320;2024-03-06T05:54:22;4.14;87.48
58102;HTU21D;52034;51.926;6.320;2024-03-06T05:55:42;4.15;87.49
58102;HTU21D;52034;51.926;6.320;2024-03-06T05:57:01;4.14;87.70
58102;HTU21D;52034;51.926;6.320;2024-03-06T05:58:22;4.14;87.85
58102;HTU21D;52034;51.926;6.320;2024-03-06T05:59:23;4.14;87.59
58102;HTU21D;52034;51.926;6.320;2024-03-06T06:00:25;4.13;87.86
58102;HTU21D;52034;51.926;6.320;2024-03-06T06:01:27;4.13;88.27
58102;HTU21D;52034;51.926;6.320;2024-03-06T06:02:29;4.10;88.22
58102;HTU21D;52034;51.926;6.320;2024-03-06T06:03:31;4.09;88.29
58102;HTU21D;52034;51.926;6.320;2024-03-06T06:04:32;4.00;87.64
58102;HTU21D;52034;51.926;6.320;2024-03-06T06:05:44;3.94;87.20
58102;HTU21D;52034;51.926;6.320;2024-03-06T06:06:47;3.93;88.22
58102;HTU21D;52034;51.926;6.320;2024-03-06T06:07:49;3.91;87.92
58102;HTU21D;52034;51.926;6.320;2024-03-06T06:08:51;3.99;88.01
58102;HTU21D;52034;51.926;6.320;2024-03-06T06:09:53;4.07;88.35
58102;HTU21D;52034;51.926;6.320;2024-03-06T06:10:54;4.12;88.98
58102;HTU21D;52034;51.926;6.320;2024-03-06T06:11:56;4.17;88.92
58102;HTU21D;52034;51.926;6.320;2024-03-06T06:12:58;4.20;88.77
58102;HTU21D;52034;51.926;6.320;2024-03-06T06:14:00;4.22;88.49
58102;HTU21D;52034;51.926;6.320;2024-03-06T06:15:01;4.16;88.66
58102;HTU21D;52034;51.926;6.320;2024-03-06T06:16:03;4.17;88.89
58102;HTU21D;52034;51.926;6.320;2024-03-06T06:17:05;4.14;88.47
58102;HTU21D;52034;51.926;6.320;2024-03-06T06:18:07;4.13;88.24
58102;HTU21D;52034;51.926;6.320;2024-03-06T06:19:09;4.15;87.99
58102;HTU21D;52034;51.926;6.320;2024-03-06T06:20:10;4.13;87.78
58102;HTU21D;52034;51.926;6.320;2024-03-06T06:21:16;4.08;87.49
58102;HTU21D;52034;51.926;6.320;2024-03-06T06:22:19;4.01;87.70
58102;HTU21D;52034;51.926;6.320;2024-03-06T06:23:21;3.92;88.38
58102;HTU21D;52034;51.926;6.320;2024-03-06T06:24:23;3.93;87.86
58102;HTU21D;52034;51.926;6.320;2024-03-06T06:25:24;3.92;87.46
58102;HTU21D;52034;51.926;6.320;2024-03-06T06:26:26;3.93;87.61
58102;HTU21D;52034;51.926;6.320;2024-03-06T06:27:28;3.85;87.22
58102;HTU21D;52034;51.926;6.320;2024-03-06T06:28:29;3.83;87.62
58102;HTU21D;52034;51.926;6.320;2024-03-06T06:29:31;3.71;87.24
58102;HTU21D;52034;51.926;6.320;2024-03-06T06:30:33;3.76;87.96
58102;HTU21D;52034;51.926;6.320;2024-03-06T06:31:35;3.89;88.18
58102;HTU21D;52034;51.926;6.320;2024-03-06T06:32:37;3.89;88.57
58102;HTU21D;52034;51.926;6.320;2024-03-06T06:33:39;3.91;88.41
58102;HTU21D;52034;51.926;6.320;2024-03-06T06:34:40;3.99;87.91
58102;HTU21D;52034;51.926;6.320;2024-03-06T06:35:42;4.01;87.81
58102;HTU21D;52034;51.926;6.320;2024-03-06T06:36:47;3.88;86.86
58102;HTU21D;52034;51.926;6.320;2024-03-06T06:37:49;3.90;86.61
58102;HTU21D;52034;51.926;6.320;2024-03-06T06:38:52;4.02;86.83
58102;HTU21D;52034;51.926;6.320;2024-03-06T06:39:54;4.02;86.56
58102;HTU21D;52034;51.926;6.320;2024-03-06T06:40:55;4.08;86.62
58102;HTU21D;52034;51.926;6.320;2024-03-06T06:41:57;4.08;86.80
58102;HTU21D;52034;51.926;6.320;2024-03-06T06:42:59;4.16;86.15
58102;HTU21D;52034;51.926;6.320;2024-03-06T06:44:01;4.20;85.61